Weather observations for the past three days for
Fergus Falls Municipal Airport-Einar Mickel
Metric (Imperial)
Date Time (cdt) Wind (kph) Vis. (km) Weather Sky Cond. Temperature (ºC) Relative Humidity Wind Chill (°C) Heat Index (°C) Pressure Precipitation (cm)
Air Dwpt 6 hour altimeter (cm) sea level (mb) 1 hr 3 hr 6 hr
Max. Min.
07 01:55 SE 11 16.09 Fair CLR -1 -4 80% -4 75.97 0.0
07 01:35 S 7 16.09 Fair CLR -2 -5 80% -4 75.97 0.0
07 01:15 S 11 16.09 Fair CLR -1 -4 80% -4 75.97 0.0
07 00:55 SE 9 16.09 A Few Clouds FEW075 0 -4 75% -3 75.97 0.0
07 00:35 SE 11 16.09 A Few Clouds FEW075 -1 -4 80% -4 76 0.0
07 00:15 SE 9 16.09 Fair CLR -1 -4 80% -4 76 0.0
06 23:55 S 9 16.09 Fair CLR 0 -3 80% -3 76.02 0.0
06 23:35 SE 11 16.09 Fair CLR 0 -3 80% -3 76.02 0.0
06 23:15 S 6 16.09 Fair CLR 1 -3 75% 76.05 0.0
06 22:55 SE 7 16.09 Fair CLR 0 -3 80% -2 76.05 0.0
06 22:35 Calm 16.09 Fair CLR 2 -3 70% 76.07 0.0
06 22:15 Calm 16.09 Fair CLR 2 -5 60% 76.1 0.0
06 21:55 Calm 16.09 Fair CLR 3 -5 56% 76.1 0.0
06 21:35 Calm 16.09 A Few Clouds FEW060 3 -4 60% 76.1 0.0
06 21:15 SW 6 16.09 Partly Cloudy SCT060 3 -5 56% 76.1 0.0
06 20:55 SW 7 16.09 Mostly Cloudy BKN060 5 -5 49% 4 76.1 0.0
06 20:35 NW 6 16.09 Overcast OVC060 5 -4 53% 76.1 0.0
06 20:15 NW 9 16.09 Overcast OVC060 5 -5 49% 3 76.1 0.0
06 19:55 NW 9 16.09 Overcast OVC060 6 -5 46% 4 76.1 0.0
06 19:35 NW 13 16.09 Overcast OVC065 6 -4 49% 4 76.1 0.0
06 19:15 NW 9 16.09 Overcast OVC060 6 -5 46% 4 76.12 0.0
06 18:55 NW 13 16.09 Overcast OVC060 6 -5 46% 4 76.12 0.0
06 18:35 NW 11 16.09 Overcast OVC060 6 -4 49% 4 76.12 0.0
06 18:15 W 13 16.09 Overcast OVC055 6 -5 46% 4 76.15 0.0
06 17:55 NW 15 16.09 Overcast OVC055 6 -4 49% 3 76.15 0.0
06 17:35 NW 17 16.09 Overcast OVC050 6 -5 46% 3 76.15 0.0
06 17:15 NW 13 G 22 16.09 Overcast OVC050 6 -5 46% 4 76.15 0.0
06 16:55 W 11 G 22 16.09 Overcast OVC048 6 -5 46% 4 76.17 0.0
06 16:35 W 17 16.09 Overcast OVC048 6 -5 46% 3 76.17 0.0
06 16:15 W 13 G 24 16.09 Overcast OVC048 6 -5 46% 4 76.17 0.0
06 15:55 W 11 G 24 16.09 Overcast OVC048 6 -5 46% 4 76.2 0.0
06 15:35 NW 20 16.09 Overcast OVC050 6 -5 46% 3 76.2 0.0
06 15:15 W 17 G 28 16.09 Overcast OVC050 6 -5 46% 3 76.2 0.0
06 14:55 W 19 16.09 Overcast OVC048 6 -5 46% 3 76.23 0.0
06 14:35 NW 17 G 30 16.09 Overcast OVC049 6 -5 46% 3 76.23 0.0
06 14:15 W 15 G 28 16.09 Overcast OVC047 6 -5 46% 3 76.23 0.0
06 13:55 NW 17 G 28 16.09 Overcast OVC045 5 -5 49% 2 76.23 0.0
06 13:35 W 19 16.09 Overcast OVC045 5 -5 49% 2 76.25 0.0
06 13:15 W 19 16.09 Overcast OVC044 5 -5 49% 2 76.25 0.0
06 12:55 W 17 G 28 16.09 Overcast OVC044 5 -5 49% 2 76.28 0.0
06 12:35 NW 20 16.09 Overcast OVC044 5 -5 49% 1 76.28 0.0
06 12:15 W 15 G 30 16.09 Overcast OVC043 5 -5 49% 2 76.3 0.0
06 11:55 W 22 16.09 Overcast OVC043 5 -5 49% 1 76.3 0.0
06 11:35 NW 20 G 30 16.09 Overcast OVC041 4 -5 52% 0 76.3 0.0
06 11:15 NW 20 16.09 Overcast OVC042 4 -5 52% 0 76.3 0.0
06 10:55 W 24 16.09 Overcast OVC046 4 -5 52% -0 76.3 0.0
06 10:35 NW 19 16.09 Overcast OVC046 4 -5 52% 0 76.33 0.0
06 10:15 NW 19 16.09 Overcast OVC041 4 -5 52% 0 76.33 0.0
06 09:55 NW 20 16.09 Overcast OVC040 3 -6 52% -1 76.33 0.0
06 09:35 NW 20 16.09 Overcast OVC040 3 -6 52% -1 76.33 0.0
06 09:15 NW 19 16.09 Overcast OVC040 3 -5 56% -1 76.33 0.0
06 08:55 N 17 16.09 Overcast OVC039 3 -5 56% -1 76.3 0.0
06 08:35 NW 15 16.09 Overcast OVC039 2 -5 60% -2 76.3 0.0
06 08:15 N 19 16.09 Overcast OVC039 2 -4 65% -2 76.3 0.0
06 07:55 NW 15 16.09 Overcast OVC039 2 -4 65% -2 76.3 0.0
06 07:35 NW 13 16.09 Overcast OVC039 1 -4 70% -2 76.28 0.0
06 07:15 NW 17 16.09 Overcast OVC039 1 -4 70% -3 76.28 0.0
06 06:55 NW 17 16.09 Overcast OVC039 1 -4 70% -3 76.25 0.0
06 06:35 NW 15 16.09 Overcast OVC039 1 -4 70% -3 76.23 0.0
06 06:15 NW 15 16.09 Overcast OVC040 1 -4 70% -3 76.23 0.0
06 05:55 N 13 16.09 Overcast OVC040 1 -4 70% -2 76.2 0.0
06 05:35 N 13 16.09 Overcast OVC040 1 -4 70% -2 76.2 0.0
06 05:15 NW 15 16.09 Overcast OVC043 2 -4 65% -2 76.2 0.0
06 04:55 NW 13 16.09 Overcast OVC044 2 -4 65% -1 76.2 0.0
06 04:35 N 15 16.09 Overcast OVC044 2 -4 65% -2 76.17 0.0
06 04:15 NW 11 16.09 Overcast OVC048 1 -3 75% -2 76.17 0.0
06 03:55 NW 11 16.09 Overcast OVC050 2 -3 70% -1 76.17 0.0
06 03:35 NW 9 16.09 Overcast OVC050 2 -3 70% -0 76.17 0.0
06 03:15 NW 7 16.09 Overcast OVC049 2 -3 70% 0 76.15 0.0
06 02:55 N 7 16.09 Overcast OVC047 2 -4 65% 0 76.15 0.0
06 02:35 N 9 16.09 Overcast OVC046 2 -4 65% -0 76.15 0.0
06 02:15 N 9 16.09 Overcast OVC046 2 -4 65% -0 76.15 0.0
06 01:55 N 9 16.09 Overcast OVC047 2 -3 70% -0 76.15 0.0
06 01:35 NW 11 16.09 Overcast OVC048 2 -4 65% -1 76.15 0.0
06 01:15 N 9 16.09 Overcast OVC048 2 -4 65% -0 76.15 0.0
06 00:55 N 11 16.09 Overcast OVC049 3 -4 60% 0 76.15 0.0
06 00:35 N 11 16.09 Overcast OVC050 2 -4 65% -1 76.15 0.0
06 00:15 N 11 16.09 Overcast OVC050 2 -4 65% -1 76.15 0.0
05 23:55 N 11 16.09 Overcast OVC050 3 -5 56% 0 76.12 0.0
05 23:35 N 15 16.09 Overcast OVC050 3 -5 56% -0 76.12 0.0
05 23:15 N 17 16.09 Overcast OVC050 3 -5 56% -1 76.12 0.0
05 22:55 N 13 16.09 Overcast OVC050 3 -5 56% 0 76.12 0.0
05 22:35 N 11 16.09 Overcast OVC055 3 -5 56% 0 76.1 0.0
05 22:15 N 13 16.09 Overcast OVC055 3 -5 56% 0 76.1 0.0
05 21:55 N 13 16.09 Overcast OVC055 3 -5 56% 0 76.07 0.0
05 21:35 N 11 16.09 Overcast OVC055 4 -5 52% 2 76.07 0.0
05 21:15 N 15 16.09 Overcast OVC055 4 -5 52% 1 76.05 0.0
05 20:55 N 15 16.09 Overcast OVC060 4 -5 52% 1 76.02 0.0
05 20:35 NW 19 G 30 16.09 Overcast OVC060 4 -5 52% 0 76.02 0.0
05 20:15 NW 20 16.09 Overcast OVC060 5 -5 49% 1 76.02 0.0
05 19:55 NW 24 16.09 Overcast OVC060 5 -5 49% 1 76 0.0
05 19:35 NW 28 G 37 16.09 Overcast OVC055 5 -6 45% 1 75.97 0.0
05 19:15 NW 26 G 37 16.09 Overcast OVC055 5 -6 45% 1 76 0.0
05 18:55 NW 28 16.09 Overcast BKN050 OVC055 6 -5 46% 2 76 0.0
05 18:35 N 22 G 33 16.09 Overcast BKN050 OVC055 6 -5 46% 2 76 0.0
05 18:15 N 26 16.09 Overcast OVC050 6 -5 46% 2 76 0.0
05 17:55 N 22 G 33 16.09 Overcast OVC050 6 -5 46% 2 76 0.0
05 17:35 NW 26 16.09 Overcast OVC050 6 -5 46% 2 75.97 0.0
05 17:15 NW 31 16.09 Overcast OVC050 6 -5 46% 2 75.97 0.0
05 16:55 N 26 16.09 Overcast OVC049 6 -5 46% 2 75.97 0.0
05 16:35 NW 31 G 41 16.09 Overcast OVC049 6 -5 46% 2 75.97 0.0
05 16:15 N 24 G 33 16.09 Overcast OVC049 6 -5 46% 2 75.97 0.0
05 15:55 N 31 16.09 Overcast OVC049 6 -5 46% 2 75.97 0.0
05 15:35 NW 24 G 37 16.09 Overcast OVC047 6 -5 46% 2 75.97 0.0
05 15:15 N 30 16.09 Overcast OVC045 6 -5 46% 2 76 0.0
05 14:55 NW 30 16.09 Overcast OVC046 6 -4 49% 2 75.97 0.0
05 14:35 NW 28 G 44 16.09 Overcast OVC047 6 -5 46% 2 75.97 0.0
05 14:15 NW 31 G 46 16.09 Overcast OVC048 7 -6 39% 3 75.95 0.0
05 13:55 NW 30 G 46 16.09 Overcast OVC050 6 -5 46% 2 75.95 0.0
05 13:35 NW 31 G 43 16.09 Overcast OVC049 6 -5 46% 2 75.95 0.0
05 13:15 NW 37 G 46 16.09 Overcast and Breezy OVC048 6 -5 46% 1 75.92 0.0
05 12:55 N 26 G 43 16.09 Overcast OVC046 6 -5 46% 2 75.92 0.0
05 12:35 NW 26 16.09 Overcast OVC046 6 -4 49% 2 75.92 0.0
05 12:15 NW 30 G 43 16.09 Overcast OVC047 6 -4 49% 2 75.92 0.0
05 11:55 N 28 G 37 16.09 Overcast BKN043 OVC050 6 -4 49% 2 75.9 0.0
05 11:35 NW 30 G 41 16.09 Mostly Cloudy BKN041 BKN047 BKN055 6 -4 49% 2 75.9 0.0
05 11:15 N 30 16.09 Partly Cloudy SCT043 6 -4 49% 2 75.87 0.0
05 10:55 NW 20 G 35 16.09 A Few Clouds FEW040 6 -3 53% 3 75.87 0.0
05 10:35 NW 17 G 35 16.09 A Few Clouds FEW039 6 -3 53% 3 75.87 0.0
05 10:15 N 15 G 33 16.09 A Few Clouds FEW100 6 -4 49% 3 75.84 0.0
05 09:55 NW 17 G 28 16.09 Overcast OVC100 5 -4 53% 2 75.84 0.0
05 09:35 NW 13 G 22 16.09 Mostly Cloudy BKN100 5 -4 53% 2 75.82 0.0
05 09:15 Vrbl 9 16.09 Fair CLR 4 -5 52% 2 75.82 0.0
05 08:55 NW 7 16.09 A Few Clouds FEW100 4 -5 52% 2 75.79 0.0
05 08:35 NW 9 16.09 Fair CLR 3 -6 52% 1 75.79 0.0
05 08:15 N 11 16.09 Fair CLR 3 -5 56% 0 75.79 0.0
05 07:55 N 11 16.09 Fair CLR 2 -4 65% -1 75.77 0.0
05 07:35 NW 9 16.09 A Few Clouds FEW050 1 -2 81% -2 75.77 0.0
05 07:15 Calm 16.09 Fair CLR 0 -2 87% 75.74 0.0
05 06:55 N 7 16.09 Fair CLR -1 -3 86% -3 75.74 0.0
05 06:35 N 7 16.09 Mostly Cloudy BKN080 -2 -4 86% -4 75.72 0.0
05 06:15 N 11 16.09 Overcast OVC080 -2 -4 86% -6 75.72 0.0
05 05:55 N 9 16.09 Overcast FEW065 OVC080 -2 -4 86% -5 75.69 0.0
05 05:35 NW 11 16.09 Overcast OVC070 -3 -4 93% -7 75.69 0.0
05 05:15 NW 11 16.09 Mostly Cloudy BKN065 BKN080 -3 -5 86% -7 75.72 0.0
05 04:55 NW 11 16.09 Overcast OVC070 -2 -5 80% -6 75.72 0.0
05 04:35 W 9 16.09 Overcast OVC070 -2 -5 80% -5 75.72 0.0
05 04:15 NW 7 16.09 Overcast SCT065 OVC075 -2 -4 86% -4 75.69 0.0
05 03:55 NW 6 16.09 Overcast SCT065 OVC075 0 -3 80% 75.69 0.0
05 03:35 NW 6 16.09 Overcast BKN065 OVC080 0 -3 80% 75.69 0.0
05 03:15 NW 7 16.09 Overcast BKN070 OVC080 1 -4 70% -1 75.69 0.0
05 02:55 N 9 16.09 Overcast FEW060 OVC075 2 -4 65% -0 75.67 0.0
05 02:35 N 9 16.09 Overcast OVC075 2 -3 70% -0 75.67 0.0
05 02:15 N 11 16.09 Overcast OVC075 2 -3 70% -1 75.67 0.0
05 01:55 N 13 16.09 Overcast OVC070 3 -2 70% 0 75.67 0.0
05 01:35 N 11 16.09 Overcast FEW041 SCT065 OVC075 3 -1 75% 0 75.64 0.0
05 01:15 NW 15 16.09 Overcast BKN048 BKN065 OVC075 4 -1 70% 1 75.64 0.0
05 00:55 NW 17 16.09 Overcast BKN049 BKN060 OVC070 4 -1 70% 1 75.64 0.0
05 00:35 NW 17 16.09 Mostly Cloudy FEW044 SCT050 BKN060 4 -1 70% 1 75.64 0.0
05 00:15 N 19 16.09 Overcast FEW045 SCT050 OVC075 4 -2 65% 0 75.62 0.0
04 23:55 N 17 16.09 Mostly Cloudy FEW044 SCT050 BKN065 4 -2 65% 1 75.62 0.0
04 23:35 N 19 16.09 Overcast SCT046 BKN060 OVC075 5 -2 61% 2 75.59 0.0
04 23:15 N 15 16.09 Mostly Cloudy FEW044 SCT049 BKN070 5 -2 61% 2 75.59 0.0
04 22:55 N 17 16.09 Mostly Cloudy FEW042 SCT049 BKN055 5 -2 61% 2 75.59 0.0
04 22:35 N 17 16.09 Overcast FEW048 BKN060 OVC075 5 -1 66% 2 75.59 0.0
04 22:15 N 15 16.09 Overcast FEW048 SCT065 OVC075 5 -2 61% 2 75.57 0.0
04 21:55 N 11 16.09 Overcast OVC070 5 -2 61% 3 75.57 0.0
04 21:35 N 17 G 26 16.09 Overcast OVC075 5 -2 61% 2 75.54 0.0
04 21:15 N 19 16.09 Overcast OVC075 6 -2 57% 3 75.51 0.0
04 20:55 NW 22 16.09 Overcast OVC075 7 -4 46% 4 75.49 0.0
04 20:35 NW 28 G 37 16.09 Overcast OVC075 7 -5 43% 3 75.46 0.0
04 20:15 NW 30 G 39 16.09 Overcast FEW065 OVC075 8 -5 40% 4 75.46 0.0
04 19:55 NW 31 G 44 16.09 Overcast SCT065 OVC080 8 -5 40% 4 75.44 0.0
04 19:35 NW 31 G 41 16.09 Overcast FEW055 BKN065 OVC075 8 -5 40% 4 75.44 0.0
04 19:15 NW 35 16.09 Overcast and Breezy SCT060 OVC075 8 -4 43% 4 75.44 0.0
04 18:55 NW 33 G 50 16.09 Overcast and Breezy FEW060 OVC075 9 -4 40% 5 75.41 0.0
04 18:35 NW 35 G 46 16.09 Overcast and Breezy SCT060 OVC075 9 -4 40% 5 75.41 0.0
04 18:15 NW 39 G 54 16.09 Overcast and Breezy FEW060 BKN070 OVC075 9 -4 40% 5 75.39 0.0
04 17:55 NW 41 G 50 16.09 Overcast and Breezy SCT060 OVC075 9 -3 43% 5 75.39 0.0
04 17:35 NW 39 G 50 16.09 Overcast and Breezy SCT055 OVC070 9 -4 40% 5 75.36 0.0
04 17:15 NW 33 G 54 16.09 Overcast and Breezy SCT055 OVC070 9 -4 40% 5 75.39 0.0
04 16:55 NW 39 G 50 16.09 Overcast and Breezy BKN060 OVC070 10 -3 40% 6 75.36 0.0
04 16:35 NW 37 16.09 Overcast and Breezy BKN055 OVC065 9 -4 40% 5 75.36 0.0
04 16:15 NW 31 G 56 16.09 Overcast OVC065 10 -4 37% 7 75.36 0.0
04 15:55 NW 37 G 56 16.09 Overcast and Breezy BKN060 OVC065 10 -4 37% 6 75.34 0.0
04 15:35 NW 46 G 57 16.09 Overcast and Windy OVC050 9 -3 43% 5 75.34 0.0
04 15:15 NW 41 G 56 16.09 Overcast and Breezy BKN050 OVC060 9 -3 43% 5 75.34 0.0
04 14:55 NW 41 G 59 16.09 Overcast and Breezy BKN050 OVC055 9 -3 43% 5 75.34 0.0
04 14:35 NW 37 G 57 16.09 Overcast and Breezy SCT045 OVC055 9 -2 46% 5 75.34 0.0
04 14:15 NW 46 16.09 Overcast and Windy SCT048 OVC055 9 -2 46% 5 75.31 0.0
04 13:55 NW 46 16.09 Overcast and Windy SCT050 OVC060 10 -3 40% 6 75.29 0.0
04 13:35 NW 44 G 57 16.09 Overcast and Windy SCT047 OVC055 9 -2 46% 5 75.29 0.0
04 13:15 NW 44 G 57 16.09 Overcast and Windy BKN050 OVC055 9 -2 46% 5 75.26 0.0
04 12:55 NW 44 16.09 Overcast and Windy OVC050 9 -2 46% 5 75.23 0.0
04 12:35 NW 50 G 61 16.09 Overcast and Windy BKN049 OVC055 10 -2 43% 6 75.23 0.0
04 12:15 NW 44 G 57 16.09 Overcast and Windy BKN046 OVC055 9 -2 46% 5 75.21 0.0
04 11:55 NW 44 16.09 Overcast and Windy BKN046 OVC055 9 -2 46% 5 75.18 0.0
04 11:35 NW 35 G 61 16.09 Mostly Cloudy and Breezy BKN045 BKN050 9 -1 50% 5 75.18 0.0
04 11:15 NW 48 G 59 16.09 Mostly Cloudy and Windy SCT043 BKN049 11 -1 44% 75.16 0.0
04 10:55 NW 48 G 57 16.09 Mostly Cloudy and Windy SCT039 BKN046 10 0 50% 6 75.13 0.0
04 10:35 NW 41 G 57 16.09 Overcast and Breezy FEW037 OVC045 9 0 54% 5 75.13 0.0
04 10:15 NW 43 G 57 16.09 Mostly Cloudy and Windy BKN034 BKN041 9 1 58% 5 75.13 0.0
04 09:55 NW 39 G 54 16.09 Partly Cloudy and Breezy SCT034 SCT041 10 1 54% 6 75.11 0.0
04 09:35 NW 44 16.09 Mostly Cloudy and Windy SCT030 BKN041 9 1 58% 5 75.11 0.0
04 09:15 NW 37 G 50 16.09 Mostly Cloudy and Breezy BKN029 BKN034 BKN041 9 1 58% 5 75.08 0.0
04 08:55 NW 41 G 54 16.09 Partly Cloudy and Breezy SCT030 8 1 62% 4 75.08 0.0
04 08:35 NW 37 G 57 16.09 A Few Clouds and Breezy FEW028 8 1 62% 4 75.06 0.0
04 08:15 NW 44 16.09 Fair and Windy CLR 8 1 62% 3 75.03 0.0
04 07:55 NW 43 G 52 16.09 Fair and Windy CLR 8 1 62% 3 75.01 0.0
04 07:35 NW 46 16.09 Partly Cloudy and Windy FEW033 SCT110 8 1 62% 3 74.98 0.0
04 07:15 NW 50 G 59 16.09 Overcast and Windy BKN034 OVC100 9 3 66% 4 74.93 0.0
04 06:55 W 28 G 39 16.09 Overcast FEW034 OVC100 9 4 71% 6 74.9 0.0
04 06:35 W 24 16.09 Overcast OVC100 9 4 71% 6 74.9 0.0
04 06:15 W 20 16.09 Overcast FEW044 SCT080 OVC095 9 4 71% 6 74.88 0.0
04 05:55 W 17 16.09 Mostly Cloudy FEW045 SCT060 BKN090 9 4 71% 7 74.85 0.0
04 05:35 W 15 16.09 Overcast BKN100 OVC120 8 4 76% 6 74.83 0.0
04 05:15 W 13 16.09 Mostly Cloudy BKN110 8 4 76% 6 74.8 0.0
04 04:55 NW 13 16.09 Mostly Cloudy FEW065 BKN110 9 3 66% 7 74.78 0.0
04 04:35 NW 15 16.09 A Few Clouds FEW070 FEW120 10 4 67% 8 74.78 0.0
04 04:15 NW 20 16.09 Partly Cloudy FEW050 SCT120 10 4 67% 8 74.78 0.0
04 03:55 N 26 G 35 16.09 Partly Cloudy FEW050 SCT120 11 4 62% 74.8 0.0
04 03:35 N 30 G 44 16.09 Partly Cloudy SCT120 11 4 62% 74.8 0.0
04 03:15 N 37 G 65 16.09 Partly Cloudy and Breezy SCT110 11 3 58% 74.78 0.0
04 02:55 N 54 G 69 11.27 Overcast and Windy OVC110 14 4 51% 74.73 0.0
04 02:35 W 44 G 57 16.09 Overcast and Windy FEW070 BKN095 OVC110 16 3 42% 74.68 0.0
04 02:15 SW 30 G 50 16.09 Mostly Cloudy FEW040 SCT075 BKN100 16 2 39% 74.65 0.0
Date Time (cdt) Wind (kph) Vis. (km) Weather Sky Cond. Air Dwpt Max. Min. Relative Humidity Wind Chill (°C) Heat Index (°C) altimeter (cm) sea level (mb) 1 hr 3 hr 6 hr
6 hour
Temperature (ºC) Pressure Precipitation (cm)